Briefing drone pour Saint-pierre-d'albigny

Rechercher une autre localisation

Conditions de vol :


Nous sommes le : Jeudi 27 janvier 2022
Il est 20:04 UTC (21:04 LT)

Lever de soleil : 06:35 UTC (07:35 LT)
Coucher de soleil : 17:00 UTC (18:00 LT)

Météo

L'essentiel des conditions de vol

VIGILANCE MÉTÉO FRANCE - Savoie (73)
Pas de vigilances particulieres
METAR de LFLB
LFLB 272000Z AUTO 07003KT 7000 OVC007 M01/M02 Q1033

Date d'émission: 27/01/2022
Heure d'émission: 20:00 UTC
Vent: 070° pour 3 KT (6 km/h)
Visibilité horizontale: 7000 m
Plafond :
- Couvert à 700ft (213m)
Température: -1 °C
Point de rosée: -2 °C
Humidité: 93%
Pression (QNH): 1033 hPa
TAF de LFLB
LFLB 270642Z 2706/2803 CNL

Conditions prévues :

Heure d'émission : Bulletin éffectué le 27 à 06:00 UTC
Prévision : Valide du 27 a 06:00 UTC au 28 a 03:00 UTC
Nuages : à 0ft (0 m)
WEBCAM POUR SAINT-PIERRE-D'ALBIGNY

Réglementation

Voler en sécurité

CARTES AERONAUTIQUE 1/500.000
CARTES VAC (LFLB)
SUP AIP




Chargement des AIP...
NOTAM (SAINT-PIERRE-D'ALBIGNY + Terrain à proximité / FIR )




Chargement des NOTAMS...
CONTACT PREFECTURE 73


Avertissement : Les données mises à disposition sont indicatives. Oxygène Drone ne pourra être tenu responsable de dégâts causés aux biens et aux personnes.